METAR Data
IDs: Format: Raw Decoded Include TAF

Data at: 1609 UTC 24 Aug 2019

PAQT 241553Z AUTO 28013KT 10SM OVC007 06/05 A2967 RMK AO2 CIG 005V010 SLP047 T00610050 TSNO
PAQT 241533Z AUTO 27012KT 10SM BKN008 OVC014 06/05 A2967 RMK AO2 CIG 006V012 T00610050 TSNO
PAQT 241524Z AUTO 28013KT 10SM BKN010 OVC014 06/05 A2967 RMK AO2 CIG 007V012 T00610050 TSNO
PAQT 241453Z AUTO 28018G22KT 10SM OVC007 06/05 A2966 RMK AO2 CIG 004V010 SLP043 60004 T00610050 53003 TSNO
PAQT 241353Z AUTO 28016KT 4SM BR OVC005 06/06 A2965 RMK AO2 RAE22B33E48 SLP041 P0001 T00610056 TSNO
PAQT 241344Z AUTO 27014KT 2 1/2SM -RA BR OVC005 06/06 A2965 RMK AO2 RAE22B33 P0001 T00610061 TSNO
PAQT 241325Z AUTO 25016KT 1 3/4SM BR OVC006 06/06 A2965 RMK AO2 RAE22 P0001 T00610056 TSNO
PAQT 241253Z AUTO 25016KT 4SM -RA BR OVC005 06/06 A2965 RMK AO2 SLP040 P0003 T00610056 TSNO
PAQT 241153Z AUTO 24017KT 4SM -RA BR OVC006 06/05 A2966 RMK AO2 RAB06 SLP044 P0001 60005 70010 T00560050 10056 20033 56013 TSNO
PAQT 241053Z AUTO 24015KT 3SM BR OVC005 05/04 A2967 RMK AO2 RAE22 SLP048 P0000 T00500044 TSNO
PAQT 240953Z AUTO 23020G27KT 10SM -RA BKN008 OVC014 04/03 A2968 RMK AO2 PK WND 23027/0950 SLP052 P0001 T00440033 TSNO
PAQT 240934Z AUTO 23016KT 9SM -RA OVC009 04/03 A2969 RMK AO2 P0001 T00440033 TSNO
PAQT 240853Z AUTO 23015KT 8SM -RA BKN014 OVC021 04/03 A2970 RMK AO2 SLP057 P0002 60003 T00390028 400500028 56013 TSNO
PAQT 240850Z AUTO 23015KT 8SM -RA BKN014 OVC021 04/03 A2970 RMK AO2 P0002 TSNO
PAQT 240753Z AUTO 24015G22KT 10SM -RA BKN023 BKN030 OVC039 04/02 A2971 RMK AO2 SLP063 P0000 T00390017 TSNO
PAQT 240722Z AUTO 23011KT 10SM -RA BKN026 BKN032 OVC041 04/02 A2972 RMK AO2 P0000 T00390017 TSNO
PAQT 240712Z AUTO 24010KT 10SM -RA FEW017 BKN030 OVC041 03/01 A2973 RMK AO2 P0000 T00330011 TSNO
PAQT 240653Z AUTO 27013KT 10SM -RA SCT017 BKN023 OVC030 03/01 A2974 RMK AO2 RAB15 SLP070 P0001 T00330011 TSNO
PAQT 240648Z AUTO 27015G21KT 8SM -RA SCT017 BKN023 OVC035 04/02 A2973 RMK AO2 RAB15 P0001 TSNO
PAQT 240619Z AUTO 25010KT 10SM -RA SCT021 SCT028 OVC043 04/02 A2974 RMK AO2 RAB15 P0000 T00390022 TSNO
PAQT 240553Z AUTO 25012KT 10SM BKN022 OVC030 04/02 A2974 RMK AO2 SLP072 60001 T00440017 10050 20033 57003 TSNO
PAQT 240549Z AUTO 25013KT 10SM FEW018 BKN022 OVC030 04/02 A2974 RMK AO2 TSNO
PAQT 240540Z AUTO 25011KT 10SM SCT018 BKN030 OVC055 04/02 A2974 RMK AO2 T00440017 TSNO
PAQT 240453Z AUTO 27011KT 9SM FEW013 BKN020 OVC060 04/02 A2975 RMK AO2 SLP075 T00390022 TSNO
PAQT 240441Z AUTO 27009KT 8SM SCT013 BKN018 OVC060 04/02 A2975 RMK AO2 T00390022 TSNO
PAQT 240428Z AUTO 28008KT 10SM BKN014 BKN020 OVC025 04/02 A2975 RMK AO2 T00390022 TSNO
PAQT 240353Z AUTO 29008KT 10SM FEW011 BKN018 OVC090 03/02 A2975 RMK AO2 SLP075 T00330022 TSNO
PAQT 240253Z AUTO 28012KT 10SM BKN024 OVC032 04/01 A2975 RMK AO2 SLP075 60001 T00440011 51007 TSNO
PAQT 240153Z AUTO 31010G17KT 8SM SCT016 OVC024 04/02 A2975 RMK AO2 RAE00 SLP075 P0000 T00390017 TSNO
PAQT 240139Z AUTO 29011KT 10SM SCT018 BKN028 OVC036 04/02 A2975 RMK AO2 RAE00 P0000 T00440017 TSNO
PAQT 240053Z AUTO 31010G19KT 6SM -RA BR SCT020 BKN033 04/02 A2974 RMK AO2 RAB2357E04B49 SLP072 P0001 T00390017 TSNO
PAQT 240035Z AUTO 31010G19KT 10SM FEW016 SCT025 BKN037 04/02 A2974 RMK AO2 RAB2357E04 P0000 T00440017 TSNO
PAQT 240022Z AUTO 31010KT 8SM FEW017 BKN025 BKN036 04/02 A2974 RMK AO2 RAB2357E04 P0000 T00440017 TSNO
PAQT 240011Z AUTO 32014G18KT 10SM FEW019 SCT026 BKN035 04/02 A2973 RMK AO2 RAB2357E04 P0000 T00440022 TSNO
PAQT 232353Z AUTO 30010G18KT 9SM BKN017 BKN025 OVC033 04/02 A2973 RMK AO2 RAE43 SLP068 P0000 60003 T00440022 10050 20028 52019 TSNO
PAQT 232253Z AUTO 32010KT 9SM -RA FEW011 BKN024 BKN033 04/02 A2971 RMK AO2 SLP062 P0000 T00390017 TSNO
PAQT 232153Z AUTO 32014G21KT 6SM -RA BR SCT015 BKN025 BKN043 04/02 A2969 RMK AO2 SLP055 P0001 T00390017 TSNO
PAQT 232116Z AUTO 30012KT 9SM -RA BKN016 BKN029 OVC043 04/02 A2968 RMK AO2 P0000 T00440017 TSNO
PAQT 232053Z AUTO 30011KT 10SM -RA FEW017 BKN035 OVC045 04/02 A2967 RMK AO2 SLP049 P0001 60002 T00440022 51022 TSNO
PAQT 232003Z AUTO 30010KT 8SM -RA SCT017 BKN026 OVC045 04/02 A2966 RMK AO2 P0000 T00390017 TSNO
PAQT 231953Z AUTO 29012G25KT 8SM -RA FEW015 SCT027 BKN036 03/01 A2965 RMK AO2 RAB01E10B34 SLP042 P0001 T00330011 TSNO
PAQT 231927Z AUTO 29012G20KT 10SM FEW014 SCT019 BKN037 04/02 A2964 RMK AO2 RAB01E10 P0000 T00440017 TSNO
PAQT 231910Z AUTO 29012KT 10SM SCT014 BKN019 OVC043 03/01 A2964 RMK AO2 RAB01E10 P0000 T00330011 TSNO
PAQT 231853Z AUTO 29010KT 10SM FEW019 BKN040 04/01 A2963 RMK AO2 RAE33B36E45 SLP035 P0000 T00390011 TSNO
PAQT 231835Z AUTO 29018G23KT 10SM FEW019 SCT026 OVC042 03/01 A2962 RMK AO2 RAE33 P0000 T00330011 TSNO
PAQT 231805Z AUTO 30012G21KT 6SM -RA BR FEW015 BKN028 OVC039 03/01 A2962 RMK AO2 P0000 T00280011 TSNO
PAQT 231753Z AUTO 29015G19KT 10SM -RA FEW017 BKN035 OVC042 03/01 A2961 RMK AO2 RAB30 SLP027 P0000 60001 T00330011 10039 20028 53010 TSNO
PAQT 231714Z AUTO 31013G19KT 10SM SCT014 OVC043 03/01 A2960 RMK AO2 T00330011 TSNO
PAQT 231653Z AUTO 29013G17KT 10SM BKN013 BKN026 OVC042 03/02 A2959 RMK AO2 RAE33 SLP021 P0000 T00330022 TSNO
PAQT 231649Z AUTO 30007KT 10SM BKN013 BKN030 OVC043 03/02 A2959 RMK AO2 RAE33 P0000 TSNO
PAQT 231627Z AUTO 29012G20KT 7SM -RA FEW010 SCT016 OVC027 03/02 A2959 RMK AO2 P0000 T00280017 TSNO
PAQT 231553Z AUTO 29011KT 10SM -RA FEW010 BKN031 OVC049 03/02 A2958 RMK AO2 RAB33 SLP016 P0001 T00330022 TSNO
PAQT 231538Z AUTO 29014G19KT 8SM -RA FEW012 BKN026 OVC050 03/02 A2957 RMK AO2 RAB33 P0001 T00330022 TSNO
PAQT 231453Z AUTO 29012KT 10SM FEW015 OVC041 03/02 A2956 RMK AO2 RAB42E52 SLP010 P0000 60000 T00330022 51011 TSNO
PAQT 231443Z AUTO 29011KT 10SM -RA SCT015 OVC037 03/02 A2956 RMK AO2 RAB42 P0000 T00330022 TSNO
PAQT 231353Z AUTO 30007KT 8SM FEW013 BKN029 OVC034 03/03 A2955 RMK AO2 RAB43E53 SLP007 P0000 T00330028 TSNO
PAQT 231333Z AUTO 30009KT 10SM FEW010 OVC036 04/03 A2954 RMK AO2 T00390028 TSNO
PAQT 231310Z AUTO 30009KT 10SM FEW008 SCT016 OVC028 04/03 A2954 RMK AO2 T00390028 TSNO
PAQT 231302Z AUTO 30008G20KT 4SM BR FEW008 OVC014 04/03 A2954 RMK AO2 T00390028 TSNO
PAQT 231255Z AUTO 31014G20KT 2 1/2SM BR FEW007 OVC014 04/03 A2954 RMK AO2 T00390033 TSNO
PAQT 231253Z AUTO 31014G20KT 3SM BR FEW007 SCT011 OVC016 04/04 A2954 RMK AO2 RAE03 SLP003 P0000 T00390039 TSNO
PAQT 231220Z AUTO 31012G16KT 3SM BR FEW006 OVC017 04/04 A2953 RMK AO2 RAE03 P0000 T00440039 TSNO
PAQT 231218Z AUTO 31011G16KT 2 1/2SM BR FEW006 OVC014 04/04 A2953 RMK AO2 RAE03 P0000 T00440039 TSNO
PAQT 231211Z AUTO 30009KT 3SM BR SCT006 OVC012 05/04 A2953 RMK AO2 RAE03 P0000 T00500044 TSNO
PAQT 231203Z AUTO 29011KT 5SM BR BKN006 OVC010 05/04 A2953 RMK AO2 RAE03 P0000 T00500044 TSNO
PAQT 231153Z AUTO 26014KT 2SM -RA BR OVC006 05/04 A2953 RMK AO2 RAB1055E13B38 SLP000 P0000 60002 70008 T00500044 10056 20044 56011 TSNO
PAQT 231122Z AUTO 24015G19KT 2 1/2SM BR OVC006 05/04 A2953 RMK AO2 RAB1055E13 P0000 T00500044 TSNO
PAQT 231053Z AUTO 23016G24KT 4SM BR OVC006 05/04 A2954 RMK AO2 RAB01E22 SLP003 P0001 T00500039 TSNO
PAQT 231049Z AUTO 24018KT 3SM BR OVC006 05/04 A2954 RMK AO2 RAB01E22 P0001 TSNO
PAQT 231037Z AUTO 23016KT 2 1/2SM BR BKN006 OVC011 04/04 A2954 RMK AO2 RAB01E22 P0001 T00440039 TSNO
PAQT 231024Z AUTO 24015KT 3SM BR BKN009 OVC017 04/04 A2955 RMK AO2 RAB01E22 P0001 T00440039 TSNO
PAQT 231013Z AUTO 24016KT 5SM -RA BR SCT009 OVC017 05/04 A2955 RMK AO2 RAB01 P0001 T00500039 TSNO
PAQT 230953Z AUTO 23014KT 10SM FEW012 BKN019 OVC039 05/03 A2956 RMK AO2 RAB05E16 SLP011 P0000 T00500033 TSNO
PAQT 230853Z AUTO 23013KT 10SM BKN023 OVC048 05/03 A2958 RMK AO2 RAE40 SLP017 P0001 60001 T00500033 400780044 58020 TSNO
PAQT 230820Z AUTO 22011KT 10SM -RA SCT018 OVC029 05/04 A2959 RMK AO2 P0001 T00500039 TSNO
PAQT 230753Z AUTO 23010KT 10SM -RA FEW018 BKN044 OVC075 05/03 A2960 RMK AO2 RAB47 SLP025 P0000 T00500033 TSNO
PAQT 230729Z AUTO 23009KT 10SM FEW024 SCT050 OVC070 05/03 A2961 RMK AO2 T00500033 TSNO
PAQT 230708Z AUTO 24010KT 10SM BKN023 BKN031 OVC036 05/03 A2961 RMK AO2 T00500028 TSNO
PAQT 230653Z AUTO 24009KT 10SM FEW022 BKN035 OVC070 05/03 A2962 RMK AO2 SLP029 T00500028 TSNO
PAQT 230607Z AUTO 24007KT 10SM FEW021 SCT028 OVC075 05/03 A2963 RMK AO2 T00500033 TSNO
PAQT 230553Z AUTO 25008KT 10SM SCT021 BKN026 OVC075 06/03 A2964 RMK AO2 RAB00E27 SLP036 P0000 60000 T00560033 10072 20056 58015 TSNO
PAQT 230545Z AUTO 24007KT 10SM SCT021 BKN026 OVC050 06/03 A2964 RMK AO2 RAB00E27 P0000 T00560033 TSNO
PAQT 230453Z AUTO 26008KT 10SM BKN065 OVC075 06/03 A2966 RMK AO2 RAB06E20 SLP043 P0000 T00560033 TSNO